Flight Track Log - Related Links

Times and Time Zones

All times are in EST time to prevent confusion due to time zone crossing. See the SWA1199 flight status page for this flight to view local times or setup timezone preferences in your user account.

Time Position Orientation Groundspeed Altitude Reporting Facility
EST Latitude Longitude Course Direction KTS MPH feet Rate Location/Type
Mon 01:43:01 PM 29.6353 -95.2892 234° Southwest 158 182 900  Level Houston Center
Mon 01:43:44 PM 29.6153 -95.3203 234° Southwest 186 214 2,200 1,701 Climbing Houston Center
Mon 01:44:08 PM 29.6044 -95.3356 231° Southwest 189 217 2,800 2,066 Climbing Houston Center
Mon 01:44:45 PM 29.5783 -95.3753 233° Southwest 228 262 4,300 2,323 Climbing Houston Center
Mon 01:45:10 PM 29.5656 -95.3953 234° Southwest 225 259 5,200 2,690 Climbing Houston Center
Mon 01:46:12 PM 29.5236 -95.4625 234° Southwest 257 296 8,200 2,661 Climbing Houston Center
Mon 01:47:14 PM 29.5619 -95.5356 301° West 269 310 10,700 1,984 Climbing Houston Center
Mon 01:48:16 PM 29.6217 -95.6431 303° West 332 382 12,300 1,776 Climbing Houston Center
Mon 01:49:19 PM 29.6783 -95.7450 303° West 370 426 14,400 2,016 Climbing Houston Center
Mon 01:50:21 PM 29.7369 -95.8517 302° West 391 450 16,500 2,468 Climbing Houston Center
Mon 01:51:23 PM 29.7969 -95.9564 303° West 392 451 19,500 2,371 Climbing Houston Center
Mon 01:52:25 PM 29.8578 -96.0647 303° West 394 453 21,400 1,694 Climbing Houston Center
Mon 01:53:27 PM 29.9175 -96.1728 303° West 401 461 23,000 1,790 Climbing Houston Center
Mon 01:54:29 PM 29.9586 -96.3228 288° West 411 473 25,100 1,984 Climbing Houston Center
Mon 01:55:31 PM 29.9875 -96.4497 285° West 412 474 27,100 2,177 Climbing Houston Center
Mon 01:56:33 PM 30.0153 -96.5697 285° West 399 459 29,600 1,984 Climbing Houston Center
Mon 01:57:35 PM 30.0408 -96.6814 285° West 374 430 31,200 1,143 Climbing Houston Center
Mon 01:58:39 PM 30.0661 -96.7933 285° West 365 420 32,000 384 Climbing Houston Center
Mon 01:59:40 PM 30.0969 -96.9303 285° West 370 426 32,000 829 Level Houston Center
Mon 02:00:42 PM 30.1192 -97.0294 285° West 363 418 33,700 968 Climbing Houston Center
Mon 02:01:44 PM 30.1475 -97.1581 284° West 353 406 34,000 145 Climbing Houston Center
Mon 02:02:46 PM 30.1728 -97.2717 284° West 359 413 34,000  Level Houston Center
Mon 02:03:48 PM 30.1975 -97.3867 284° West 362 417 34,000  Level Houston Center
Mon 02:04:50 PM 30.2222 -97.5014 284° West 364 419 34,000  Level Houston Center
Mon 02:05:52 PM 30.2486 -97.6172 285° West 369 425 34,000  Level Houston Center
Mon 02:06:55 PM 30.2733 -97.7317 284° West 364 419 34,000  Level Houston Center
Mon 02:07:57 PM 30.2983 -97.8472 284° West 365 420 34,000  Level Houston Center
Mon 02:08:59 PM 30.3267 -97.9778 284° West 364 419 34,000  Level Houston Center
Mon 02:10:01 PM 30.3519 -98.0978 284° West 366 421 34,000 484 Level Houston Center
Mon 02:11:03 PM 30.3767 -98.2114 284° West 363 418 35,000 968 Climbing Houston Center
Mon 02:12:05 PM 30.3994 -98.3203 284° West 349 402 36,000 484 Climbing Houston Center
Mon 02:13:07 PM 30.4211 -98.4275 283° West 341 392 36,000  Level Houston Center
Mon 02:14:10 PM 30.4444 -98.5358 284° West 342 394 36,000  Level Houston Center
Mon 02:15:12 PM 30.4661 -98.6436 283° West 342 394 36,000  Level Houston Center
Mon 02:16:14 PM 30.4894 -98.7533 284° West 347 399 36,000  Level Houston Center
Mon 02:17:16 PM 30.5158 -98.8806 284° West 344 396 36,000  Level Houston Center
Mon 02:18:18 PM 30.5381 -98.9886 283° West 343 395 36,000  Level Houston Center
Mon 02:19:20 PM 30.5606 -99.0981 283° West 345 397 36,000  Level Houston Center
Mon 02:20:22 PM 30.5806 -99.1953 283° West 342 394 36,000  Level Houston Center
Mon 02:21:24 PM 30.6081 -99.3247 284° West 345 397 36,000  Level Houston Center
Mon 02:22:27 PM 30.6289 -99.4314 283° West 343 395 36,000  Level Houston Center
Mon 02:23:29 PM 30.6503 -99.5400 283° West 346 398 36,000  Level Houston Center
Mon 02:24:31 PM 30.6717 -99.6472 283° West 345 397 36,000  Level Houston Center
Mon 02:25:33 PM 30.6950 -99.7583 284° West 354 407 36,000  Level Houston Center
Mon 02:26:35 PM 30.7208 -99.8906 283° West 352 405 36,000  Level Houston Center
Mon 02:27:37 PM 30.7422 -100.0019 283° West 355 409 36,000  Level Houston Center
Mon 02:28:39 PM 30.7647 -100.1111 284° West 351 404 36,000  Level Houston Center
Mon 02:29:42 PM 30.7864 -100.2225 283° West 353 406 36,000  Level Houston Center
Mon 02:30:44 PM 30.8089 -100.3331 283° West 354 407 36,000  Level Houston Center
Mon 02:31:46 PM 30.8342 -100.4653 283° West 352 405 36,000  Level Houston Center
Mon 02:32:48 PM 30.8544 -100.5767 282° West 353 406 36,000  Level Houston Center
Mon 02:33:50 PM 30.8764 -100.6869 283° West 353 406 36,000  Level Houston Center
Mon 02:34:52 PM 30.8967 -100.7975 282° West 351 404 36,000  Level Houston Center
Mon 02:35:54 PM 30.9181 -100.9075 283° West 350 403 36,000  Level Houston Center
Mon 02:36:56 PM 30.9392 -101.0181 283° West 350 403 36,000  Level Houston Center
Mon 02:37:59 PM 30.9631 -101.1489 282° West 346 398 36,000  Level Houston Center
Mon 02:39:01 PM 30.9842 -101.2597 283° West 350 403 36,000  Level Houston Center
Mon 02:40:03 PM 31.0058 -101.3761 282° West 351 404 36,000  Level Houston Center
Mon 02:41:05 PM 31.0250 -101.4872 281° West 350 403 36,000  Level Houston Center
Mon 02:42:07 PM 31.0464 -101.5986 283° West 352 405 36,000  Level Houston Center
Mon 02:43:09 PM 31.0669 -101.7081 282° West 349 402 36,000  Level Houston Center
Mon 02:44:11 PM 31.0864 -101.8164 282° West 342 394 36,000  Level Houston Center
Mon 02:45:13 PM 31.1100 -101.9444 282° West 338 389 36,000  Level Houston Center
Mon 02:46:16 PM 31.1292 -102.0506 282° West 335 386 36,000  Level Houston Center
Mon 02:47:18 PM 31.1486 -102.1583 282° West 337 388 36,000  Level Houston Center
Mon 02:47:55 PM 31.1597 -102.2250 281° West 336 387 36,000  Level Albuquerque Center
Mon 02:48:57 PM 31.1789 -102.3317 282° West 336 387 36,000  Level Albuquerque Center
Mon 02:49:59 PM 31.1969 -102.4389 281° West 336 387 36,000  Level Albuquerque Center
Mon 02:51:01 PM 31.2194 -102.5667 282° West 336 387 36,000  Level Albuquerque Center
Mon 02:52:03 PM 31.2394 -102.6753 282° West 340 391 36,000  Level Albuquerque Center
Mon 02:53:05 PM 31.2581 -102.7828 281° West 340 391 36,000  Level Albuquerque Center
Mon 02:54:07 PM 31.2758 -102.8914 281° West 340 391 36,000  Level Albuquerque Center
Mon 02:55:09 PM 31.2953 -103.0003 282° West 343 395 36,000  Level Albuquerque Center
Mon 02:56:11 PM 31.3150 -103.1119 282° West 348 400 36,000  Level Albuquerque Center
Mon 02:57:13 PM 31.3369 -103.2450 281° West 348 400 36,000  Level Albuquerque Center
Mon 02:58:15 PM 31.3556 -103.3553 281° West 348 400 36,000  Level Albuquerque Center
Mon 02:59:17 PM 31.3747 -103.4622 282° West 347 399 36,000  Level Albuquerque Center
Mon 03:00:19 PM 31.3931 -103.5722 281° West 347 399 36,000  Level Albuquerque Center
Mon 03:01:21 PM 31.4111 -103.6800 281° West 342 394 36,000  Level Albuquerque Center
Mon 03:02:23 PM 31.4333 -103.8125 281° West 345 397 36,000  Level Albuquerque Center
Mon 03:03:25 PM 31.4514 -103.9231 281° West 347 399 36,000  Level Albuquerque Center
Mon 03:04:27 PM 31.4694 -104.0339 281° West 348 400 36,000  Level Albuquerque Center
Mon 03:05:29 PM 31.4886 -104.1469 281° West 352 405 36,000  Level Albuquerque Center
Mon 03:06:31 PM 31.5064 -104.2603 280° West 354 407 36,000  Level Albuquerque Center
Mon 03:07:33 PM 31.5253 -104.3719 281° West 353 406 36,000  Level Albuquerque Center
Mon 03:08:35 PM 31.5467 -104.5061 281° West 351 404 36,000  Level Albuquerque Center
Mon 03:09:37 PM 31.5758 -104.6117 288° West 345 397 36,000  Level Albuquerque Center
Mon 03:10:39 PM 31.6028 -104.7156 287° West 339 390 36,000  Level Albuquerque Center
Mon 03:11:41 PM 31.6308 -104.8183 288° West 334 384 36,000  Level Albuquerque Center
Mon 03:12:43 PM 31.6503 -104.9239 282° West 333 383 36,000 -484 Level Albuquerque Center
Mon 03:13:45 PM 31.6667 -105.0317 280° West 336 387 35,000 -1,597 Descending Albuquerque Center
Mon 03:14:47 PM 31.6886 -105.1622 281° West 341 392 32,700 -1,452 Descending Albuquerque Center
Mon 03:15:49 PM 31.7058 -105.2797 280° West 360 414 32,000 -339 Descending Albuquerque Center
Mon 03:16:51 PM 31.7239 -105.3953 280° West 363 418 32,000  Level Albuquerque Center
Mon 03:17:53 PM 31.7425 -105.5128 281° West 367 422 32,000  Level Albuquerque Center
Mon 03:18:55 PM 31.7608 -105.6289 281° West 364 419 32,000  Level Albuquerque Center
Mon 03:19:57 PM 31.7819 -105.7669 280° West 361 415 32,000  Level Albuquerque Center
Mon 03:20:59 PM 31.7997 -105.8822 280° West 360 414 32,000  Level Albuquerque Center
Mon 03:22:01 PM 31.8169 -105.9964 280° West 357 411 32,000  Level Albuquerque Center
Mon 03:23:03 PM 31.8347 -106.1100 280° West 355 409 32,000  Level Albuquerque Center
Mon 03:24:05 PM 31.8525 -106.2242 280° West 356 410 32,000  Level Albuquerque Center
Mon 03:25:07 PM 31.8703 -106.3392 280° West 357 411 32,000  Level Albuquerque Center
Mon 03:26:09 PM 31.8889 -106.4792 279° West 360 414 32,000  Level Albuquerque Center
Mon 03:27:11 PM 31.9078 -106.5958 281° West 361 415 32,000  Level Albuquerque Center
Mon 03:28:13 PM 31.9256 -106.7114 280° West 359 413 32,000  Level Albuquerque Center
Mon 03:29:15 PM 31.9422 -106.8269 280° West 358 412 32,000  Level Albuquerque Center
Mon 03:30:17 PM 31.9592 -106.9431 280° West 360 414 32,000  Level Albuquerque Center
Mon 03:31:19 PM 31.9761 -107.0597 280° West 361 415 32,000  Level Albuquerque Center
Mon 03:32:21 PM 31.9922 -107.1764 279° West 359 413 32,000  Level Albuquerque Center
Mon 03:33:23 PM 32.0111 -107.3175 279° West 361 415 32,000  Level Albuquerque Center
Mon 03:34:25 PM 32.0281 -107.4347 280° West 361 415 32,000  Level Albuquerque Center
Mon 03:35:27 PM 32.0428 -107.5506 279° West 359 413 32,000  Level Albuquerque Center
Mon 03:36:29 PM 32.0586 -107.6664 279° West 358 412 32,000  Level Albuquerque Center
Mon 03:37:31 PM 32.0744 -107.7828 279° West 358 412 32,000  Level Albuquerque Center
Mon 03:38:33 PM 32.0894 -107.9000 279° West 360 414 32,000  Level Albuquerque Center
Mon 03:39:35 PM 32.1078 -108.0425 279° West 363 418 32,000  Level Albuquerque Center
Mon 03:40:37 PM 32.1242 -108.1603 279° West 363 418 32,000  Level Albuquerque Center
Mon 03:41:39 PM 32.1397 -108.2783 279° West 364 419 32,000  Level Albuquerque Center
Mon 03:42:41 PM 32.1600 -108.3911 282° West 358 412 32,000  Level Albuquerque Center
Mon 03:43:43 PM 32.2017 -108.5039 294° West 364 419 32,000  Level Albuquerque Center
Mon 03:44:45 PM 32.2353 -108.6158 290° West 364 419 32,000  Level Albuquerque Center
Mon 03:45:47 PM 32.2694 -108.7272 290° West 362 417 32,000  Level Albuquerque Center
Mon 03:46:50 PM 32.3114 -108.8611 290° West 362 417 32,000  Level Albuquerque Center
Mon 03:47:52 PM 32.3456 -108.9733 290° West 362 417 32,000  Level Albuquerque Center
Mon 03:48:54 PM 32.3803 -109.0861 290° West 363 418 32,000  Level Albuquerque Center
Mon 03:49:56 PM 32.4133 -109.1967 290° West 359 413 32,000  Level Albuquerque Center
Mon 03:50:58 PM 32.4475 -109.3072 290° West 357 411 32,000  Level Albuquerque Center
Mon 03:52:00 PM 32.4811 -109.4200 289° West 360 414 32,000  Level Albuquerque Center
Mon 03:53:02 PM 32.5153 -109.5317 290° West 360 414 32,000  Level Albuquerque Center
Mon 03:54:04 PM 32.5558 -109.6683 289° West 362 417 32,000  Level Albuquerque Center
Mon 03:55:06 PM 32.5931 -109.7842 291° West 372 428 32,000  Level Albuquerque Center
Mon 03:56:08 PM 32.6250 -109.8978 288° West 366 421 32,000  Level Albuquerque Center
Mon 03:57:10 PM 32.6597 -110.0108 290° West 364 419 32,000  Level Albuquerque Center
Mon 03:58:12 PM 32.6944 -110.1258 290° West 369 425 32,000  Level Albuquerque Center
Mon 03:59:14 PM 32.7269 -110.2394 289° West 364 419 32,000  Level Albuquerque Center
Mon 04:00:16 PM 32.7678 -110.3758 290° West 366 421 32,000  Level Albuquerque Center
Mon 04:01:18 PM 32.8008 -110.4894 289° West 364 419 32,000  Level Albuquerque Center
Mon 04:02:20 PM 32.8333 -110.6031 289° West 364 419 32,000  Level Albuquerque Center
Mon 04:03:23 PM 32.8664 -110.7125 290° West 364 419 32,000  Level Albuquerque Center
Mon 04:04:25 PM 32.8978 -110.8261 288° West 363 418 32,000  Level Albuquerque Center
Mon 04:05:27 PM 32.9372 -110.9603 289° West 360 414 32,000  Level Albuquerque Center
Mon 04:06:29 PM 32.9697 -111.0719 289° West 358 412 32,000 -290 Level Albuquerque Center
Mon 04:07:31 PM 33.0022 -111.1856 289° West 362 417 31,400 -968 Descending Albuquerque Center
Mon 04:08:33 PM 33.0356 -111.3033 289° West 375 432 30,000 -677 Descending Albuquerque Center
Mon 04:09:35 PM 33.0697 -111.4267 288° West 389 448 30,000  Level Albuquerque Center
Mon 04:10:37 PM 33.1044 -111.5481 289° West 387 445 30,000  Level Albuquerque Center
Mon 04:11:39 PM 33.1447 -111.6936 288° West 385 443 30,000  Level Albuquerque Center
Mon 04:12:41 PM 33.1786 -111.8153 288° West 385 443 30,000  Level Albuquerque Center
Mon 04:13:43 PM 33.2125 -111.9375 288° West 387 445 30,000  Level Albuquerque Center
Mon 04:14:45 PM 33.2458 -112.0586 288° West 385 443 30,000  Level Albuquerque Center
Mon 04:15:47 PM 33.2797 -112.1817 288° West 387 445 30,000  Level Albuquerque Center
Mon 04:16:50 PM 33.3128 -112.3053 288° West 389 448 30,000  Level Albuquerque Center
Mon 04:17:52 PM 33.3461 -112.4278 288° West 388 447 30,000  Level Albuquerque Center
Mon 04:18:54 PM 33.3869 -112.5772 288° West 392 451 30,000  Level Albuquerque Center
Mon 04:19:56 PM 33.4164 -112.6864 288° West 393 452 30,000  Level Albuquerque Center
Mon 04:20:58 PM 33.4581 -112.8372 288° West 396 456 30,000  Level Albuquerque Center
Mon 04:22:00 PM 33.5017 -112.9600 293° West 400 460 30,000  Level Albuquerque Center
Mon 04:23:02 PM 33.5469 -113.0831 294° West 404 465 30,000  Level Albuquerque Center
Mon 04:24:04 PM 33.5903 -113.2067 293° West 404 465 30,000  Level Albuquerque Center
Mon 04:25:06 PM 33.6406 -113.3519 293° West 410 472 30,000  Level Albuquerque Center
Mon 04:26:08 PM 33.6853 -113.4783 293° West 411 473 30,000  Level Albuquerque Center
Mon 04:27:10 PM 33.7297 -113.6036 293° West 410 472 30,000  Level Albuquerque Center
Mon 04:28:12 PM 33.7739 -113.7300 293° West 409 471 30,000  Level Albuquerque Center
Mon 04:29:14 PM 33.8181 -113.8553 293° West 408 470 30,000  Level Albuquerque Center
Mon 04:30:16 PM 33.8597 -113.9756 293° West 397 457 30,000  Level Albuquerque Center
Mon 04:31:18 PM 33.9108 -114.1197 293° West 391 450 30,000  Level Albuquerque Center
Mon 04:32:20 PM 33.9533 -114.2456 292° West 392 451 30,000 -48 Level Albuquerque Center
Mon 04:33:22 PM 33.9939 -114.3667 292° West 391 450 29,900  Descending Albuquerque Center
Mon 04:34:24 PM 34.0356 -114.4811 294° West 376 433 30,000 44 Climbing Albuquerque Center
Mon 04:35:38 PM 34.1181 -114.5967 311° West 372 428 30,000  Level Los Angeles Center
Mon 04:36:41 PM 34.1178 -114.7144 270° West 357 411 30,000  Level Los Angeles Center
Mon 04:37:43 PM 34.1186 -114.8358 271° West 360 414 30,000  Level Los Angeles Center
Mon 04:38:45 PM 34.1175 -114.9831 270° West 365 420 30,000  Level Los Angeles Center
Mon 04:39:47 PM 34.1178 -115.1056 270° West 366 421 30,000  Level Los Angeles Center
Mon 04:40:49 PM 34.1167 -115.2286 269° West 368 423 30,000  Level Los Angeles Center
Mon 04:41:51 PM 34.1158 -115.3506 270° West 366 421 30,000 -145 Level Los Angeles Center
Mon 04:42:53 PM 34.1150 -115.4725 270° West 365 420 29,700 -726 Descending Los Angeles Center
Mon 04:43:55 PM 34.1136 -115.6175 269° West 362 417 28,500 -1,104 Descending Los Angeles Center
Mon 04:44:58 PM 34.1133 -115.7347 270° West 354 407 27,400 -1,008 Descending Los Angeles Center
Mon 04:46:00 PM 34.1000 -115.8494 262° West 349 402 26,400 -968 Descending Los Angeles Center
Mon 04:47:02 PM 34.0836 -115.9594 260° West 339 390 25,400 -968 Descending Los Angeles Center
Mon 04:48:04 PM 34.0669 -116.0750 260° West 346 398 24,400 -677 Descending Los Angeles Center
Mon 04:49:06 PM 34.0503 -116.1861 260° West 342 394 24,000 -194 Descending Los Angeles Center
Mon 04:50:08 PM 34.0306 -116.3192 260° West 338 389 24,000  Level Los Angeles Center
Mon 04:51:10 PM 34.0119 -116.4339 259° West 347 399 24,000  Level Los Angeles Center
Mon 04:52:12 PM 33.9986 -116.5639 263° West 384 442 24,000 -624 Level Los Angeles Center
Mon 04:53:15 PM 33.9889 -116.6950 265° West 394 453 22,700 -1,296 Descending Los Angeles Center
Mon 04:54:17 PM 33.9781 -116.8258 264° West 395 455 21,300 -1,790 Descending Los Angeles Center
Mon 04:55:19 PM 33.9644 -116.9839 264° West 397 457 19,000 -2,081 Descending Los Angeles Center
Mon 04:56:21 PM 33.9536 -117.1167 264° West 399 459 17,000 -1,762 Descending Los Angeles Center
Mon 04:57:25 PM 33.9500 -117.2500 268° West 379 436 15,300 -1,694 Descending Southern California TRACON
Mon 04:58:25 PM 33.9333 -117.3833 261° West 369 425 13,500 -1,537 Descending Southern California TRACON
Mon 04:59:26 PM 33.9667 -117.4833 292° West 357 411 12,200 -1,587 Descending Southern California TRACON
Mon 05:00:26 PM 34.0167 -117.6000 297° West 378 435 10,300 -1,100 Descending Southern California TRACON
Mon 05:01:26 PM 34.0167 -117.7000 270° West 291 335 10,000 -650 Descending Southern California TRACON
Mon 05:02:26 PM 34.0167 -117.8000 270° West 277 319 9,000 -1,263 Descending Southern California TRACON
Mon 05:03:20 PM 34.0000 -117.8833 256° West 282 325 7,600 -1,474 Descending Southern California TRACON
Mon 05:04:20 PM 34.0000 -117.9667 270° West 274 315 6,200 -1,450 Descending Southern California TRACON
Mon 05:05:20 PM 33.9833 -118.0667 259° West 269 310 4,700 -1,100 Descending Southern California TRACON
Mon 05:06:20 PM 33.9833 -118.1500 270° West 251 289 4,000 -600 Descending Southern California TRACON
Mon 05:07:20 PM 33.9667 -118.2167 253° West 198 228 3,500 -750 Descending Southern California TRACON
Mon 05:08:20 PM 33.9667 -118.2833 270° West 174 200 2,500 -1,100 Descending Southern California TRACON
Mon 05:09:20 PM 33.9667 -118.3333 270° West 168 193 1,300 -992 Descending Southern California TRACON
Mon 05:10:21 PM 33.9500 -118.3833 248° West 148 170 500 -725 Descending Southern California TRACON
Mon 05:10:51 PM 33.9533 -118.4028 282° West 159 183 200 -600 Descending Los Angeles Center
Mon 05:12:00 PM 33.9425 -118.4081 270° West  Level Estimated

Login

Don't have an account? Register now (free) for customized features, flight alerts, and more!